sensor_id;sensor_type;location;lat;lon;timestamp;pressure;altitude;pressure_sealevel;temperature;humidity
11682;BME280;5897;42.640;23.310;2022-11-20T00:01:12;93200.13;;;18.51;59.68
11682;BME280;5897;42.640;23.310;2022-11-20T00:03:38;93164.81;;;18.48;59.92
11682;BME280;5897;42.640;23.310;2022-11-20T00:06:08;93200.84;;;18.41;60.79
11682;BME280;5897;42.640;23.310;2022-11-20T00:08:36;93224.25;;;18.53;59.93
11682;BME280;5897;42.640;23.310;2022-11-20T00:11:04;93206.81;;;18.45;60.33
11682;BME280;5897;42.640;23.310;2022-11-20T00:13:31;93152.88;;;18.40;60.69
11682;BME280;5897;42.640;23.310;2022-11-20T00:15:58;93156.84;;;18.44;59.95
11682;BME280;5897;42.640;23.310;2022-11-20T00:18:26;93167.31;;;18.51;59.51
11682;BME280;5897;42.640;23.310;2022-11-20T00:20:53;93196.34;;;18.38;61.08
11682;BME280;5897;42.640;23.310;2022-11-20T00:23:21;93231.19;;;18.37;60.96
11682;BME280;5897;42.640;23.310;2022-11-20T00:25:47;93164.53;;;18.40;60.19
11682;BME280;5897;42.640;23.310;2022-11-20T00:28:14;93177.25;;;18.43;60.60
11682;BME280;5897;42.640;23.310;2022-11-20T00:30:41;93156.59;;;18.37;60.66
11682;BME280;5897;42.640;23.310;2022-11-20T00:33:08;93191.41;;;18.42;60.26
11682;BME280;5897;42.640;23.310;2022-11-20T00:35:34;93136.94;;;18.44;60.23
11682;BME280;5897;42.640;23.310;2022-11-20T00:38:01;93188.19;;;18.43;59.52
11682;BME280;5897;42.640;23.310;2022-11-20T00:40:29;93187.66;;;18.39;60.28
11682;BME280;5897;42.640;23.310;2022-11-20T00:42:56;93165.78;;;18.45;59.94
11682;BME280;5897;42.640;23.310;2022-11-20T00:45:22;93183.97;;;18.48;59.35
11682;BME280;5897;42.640;23.310;2022-11-20T00:47:49;93175.50;;;18.46;58.93
11682;BME280;5897;42.640;23.310;2022-11-20T00:50:16;93221.53;;;18.58;58.33
11682;BME280;5897;42.640;23.310;2022-11-20T00:52:42;93203.63;;;18.52;58.89
11682;BME280;5897;42.640;23.310;2022-11-20T00:55:09;93173.78;;;18.54;58.23
11682;BME280;5897;42.640;23.310;2022-11-20T00:57:37;93239.94;;;18.58;58.32
11682;BME280;5897;42.640;23.310;2022-11-20T01:00:05;93180.97;;;18.51;58.71
11682;BME280;5897;42.640;23.310;2022-11-20T01:02:32;93177.75;;;18.53;58.14
11682;BME280;5897;42.640;23.310;2022-11-20T01:04:59;93261.06;;;18.52;58.55
11682;BME280;5897;42.640;23.310;2022-11-20T01:07:26;93185.97;;;18.53;58.61
11682;BME280;5897;42.640;23.310;2022-11-20T01:09:52;93177.00;;;18.52;58.53
11682;BME280;5897;42.640;23.310;2022-11-20T01:12:19;93149.16;;;18.48;58.71
11682;BME280;5897;42.640;23.310;2022-11-20T01:14:48;93135.97;;;18.52;58.25
11682;BME280;5897;42.640;23.310;2022-11-20T01:17:15;93194.41;;;18.49;58.22
11682;BME280;5897;42.640;23.310;2022-11-20T01:19:41;93185.97;;;18.53;58.24
11682;BME280;5897;42.640;23.310;2022-11-20T01:22:09;93156.13;;;18.49;57.63
11682;BME280;5897;42.640;23.310;2022-11-20T01:24:36;93153.63;;;18.46;57.98
11682;BME280;5897;42.640;23.310;2022-11-20T01:27:02;93167.03;;;18.44;58.70
11682;BME280;5897;42.640;23.310;2022-11-20T01:29:29;93152.88;;;18.45;58.77
11682;BME280;5897;42.640;23.310;2022-11-20T01:31:57;93123.28;;;18.44;58.72
11682;BME280;5897;42.640;23.310;2022-11-20T01:34:24;93120.53;;;18.44;58.27
11682;BME280;5897;42.640;23.310;2022-11-20T01:36:52;93073.50;;;18.18;58.50
11682;BME280;5897;42.640;23.310;2022-11-20T01:39:20;93102.34;;;18.24;58.22
11682;BME280;5897;42.640;23.310;2022-11-20T01:41:50;93130.47;;;18.41;58.54
11682;BME280;5897;42.640;23.310;2022-11-20T01:44:53;93093.69;;;18.37;58.18
11682;BME280;5897;42.640;23.310;2022-11-20T01:47:25;93113.03;;;18.22;58.38
11682;BME280;5897;42.640;23.310;2022-11-20T01:49:56;93110.09;;;18.37;58.00
11682;BME280;5897;42.640;23.310;2022-11-20T01:52:28;93124.44;;;18.15;58.23
11682;BME280;5897;42.640;23.310;2022-11-20T01:54:59;93133.47;;;18.38;57.95
11682;BME280;5897;42.640;23.310;2022-11-20T01:57:29;93152.84;;;18.34;57.44
11682;BME280;5897;42.640;23.310;2022-11-20T02:00:03;93123.00;;;18.36;57.98
11682;BME280;5897;42.640;23.310;2022-11-20T02:02:31;93116.84;;;18.47;56.80
11682;BME280;5897;42.640;23.310;2022-11-20T02:05:04;93109.84;;;18.35;57.31
11682;BME280;5897;42.640;23.310;2022-11-20T02:07:37;93144.16;;;18.36;57.22
11682;BME280;5897;42.640;23.310;2022-11-20T02:10:04;93152.59;;;18.38;57.07
11682;BME280;5897;42.640;23.310;2022-11-20T02:12:31;93134.47;;;18.35;57.22
11682;BME280;5897;42.640;23.310;2022-11-20T02:15:15;93150.59;;;18.33;57.21
11682;BME280;5897;42.640;23.310;2022-11-20T02:17:43;93164.06;;;18.42;57.24
11682;BME280;5897;42.640;23.310;2022-11-20T02:20:11;93149.13;;;18.37;58.05
11682;BME280;5897;42.640;23.310;2022-11-20T02:22:42;93139.69;;;18.38;57.59
11682;BME280;5897;42.640;23.310;2022-11-20T02:25:16;93142.91;;;18.31;57.55
11682;BME280;5897;42.640;23.310;2022-11-20T02:27:43;93140.19;;;18.37;57.76
11682;BME280;5897;42.640;23.310;2022-11-20T02:30:11;93123.47;;;18.24;57.97
11682;BME280;5897;42.640;23.310;2022-11-20T02:32:38;93140.13;;;18.20;57.89
11682;BME280;5897;42.640;23.310;2022-11-20T02:35:09;93146.34;;;18.26;58.43
11682;BME280;5897;42.640;23.310;2022-11-20T02:37:37;93154.28;;;18.19;58.58
11682;BME280;5897;42.640;23.310;2022-11-20T02:40:07;93128.94;;;18.24;58.65
11682;BME280;5897;42.640;23.310;2022-11-20T02:42:35;93156.75;;;18.17;59.32
11682;BME280;5897;42.640;23.310;2022-11-20T02:45:02;93178.88;;;18.19;59.80
11682;BME280;5897;42.640;23.310;2022-11-20T02:47:30;93165.44;;;18.15;60.40
11682;BME280;5897;42.640;23.310;2022-11-20T02:49:56;93161.72;;;18.18;60.23
11682;BME280;5897;42.640;23.310;2022-11-20T02:52:24;93172.16;;;18.14;60.77
11682;BME280;5897;42.640;23.310;2022-11-20T02:54:50;93170.34;;;18.00;62.16
11682;BME280;5897;42.640;23.310;2022-11-20T02:57:17;93179.81;;;18.05;61.66
11682;BME280;5897;42.640;23.310;2022-11-20T02:59:45;93172.34;;;18.00;62.71
11682;BME280;5897;42.640;23.310;2022-11-20T03:02:12;93160.66;;;17.99;62.96
11682;BME280;5897;42.640;23.310;2022-11-20T03:04:39;93158.19;;;17.96;62.79
11682;BME280;5897;42.640;23.310;2022-11-20T03:07:07;93203.88;;;17.95;62.65
11682;BME280;5897;42.640;23.310;2022-11-20T03:09:34;93176.53;;;17.95;62.39
11682;BME280;5897;42.640;23.310;2022-11-20T03:12:01;93186.75;;;17.95;63.12
11682;BME280;5897;42.640;23.310;2022-11-20T03:14:27;93186.28;;;18.02;61.92
11682;BME280;5897;42.640;23.310;2022-11-20T03:16:56;93277.44;;;17.99;61.59
11682;BME280;5897;42.640;23.310;2022-11-20T03:19:22;93172.88;;;18.09;60.58
11682;BME280;5897;42.640;23.310;2022-11-20T03:21:49;93194.00;;;18.09;61.02
11682;BME280;5897;42.640;23.310;2022-11-20T03:24:16;93223.31;;;18.08;61.08
11682;BME280;5897;42.640;23.310;2022-11-20T03:26:43;93182.06;;;18.01;61.43
11682;BME280;5897;42.640;23.310;2022-11-20T03:29:09;93247.59;;;17.90;62.76
11682;BME280;5897;42.640;23.310;2022-11-20T03:31:38;93218.03;;;17.94;62.37
11682;BME280;5897;42.640;23.310;2022-11-20T03:34:08;93195.38;;;17.88;62.92
11682;BME280;5897;42.640;23.310;2022-11-20T03:36:37;93237.59;;;17.81;63.62
11682;BME280;5897;42.640;23.310;2022-11-20T03:39:03;93163.34;;;17.83;63.43
11682;BME280;5897;42.640;23.310;2022-11-20T03:41:31;93231.06;;;17.73;63.64
11682;BME280;5897;42.640;23.310;2022-11-20T03:44:04;93202.13;;;17.50;63.76
11682;BME280;5897;42.640;23.310;2022-11-20T03:46:31;93228.63;;;17.75;63.35
11682;BME280;5897;42.640;23.310;2022-11-20T03:48:58;93212.53;;;17.83;63.02
11682;BME280;5897;42.640;23.310;2022-11-20T03:51:27;93201.72;;;17.63;62.18
11682;BME280;5897;42.640;23.310;2022-11-20T03:53:57;93198.06;;;17.77;63.05
11682;BME280;5897;42.640;23.310;2022-11-20T03:56:26;93214.41;;;17.66;63.66
11682;BME280;5897;42.640;23.310;2022-11-20T03:58:53;93210.22;;;17.70;63.56
11682;BME280;5897;42.640;23.310;2022-11-20T04:01:22;93200.03;;;17.71;63.19
11682;BME280;5897;42.640;23.310;2022-11-20T04:03:52;93217.88;;;17.61;64.10
11682;BME280;5897;42.640;23.310;2022-11-20T04:06:20;93211.41;;;17.64;63.69
11682;BME280;5897;42.640;23.310;2022-11-20T04:08:49;93201.00;;;17.68;63.45
11682;BME280;5897;42.640;23.310;2022-11-20T04:11:17;93185.59;;;17.65;63.23
11682;BME280;5897;42.640;23.310;2022-11-20T04:13:46;93233.31;;;17.75;61.99
11682;BME280;5897;42.640;23.310;2022-11-20T04:16:14;93215.16;;;17.66;62.89
11682;BME280;5897;42.640;23.310;2022-11-20T04:18:40;93216.63;;;17.67;62.95
11682;BME280;5897;42.640;23.310;2022-11-20T04:21:07;93205.72;;;17.67;62.70
11682;BME280;5897;42.640;23.310;2022-11-20T04:23:34;93211.41;;;17.64;63.04
11682;BME280;5897;42.640;23.310;2022-11-20T04:26:03;93239.72;;;17.61;63.44
11682;BME280;5897;42.640;23.310;2022-11-20T04:28:30;93219.06;;;17.60;63.88
11682;BME280;5897;42.640;23.310;2022-11-20T04:31:05;93244.09;;;17.47;64.16
11682;BME280;5897;42.640;23.310;2022-11-20T04:33:32;93224.50;;;17.54;64.59
11682;BME280;5897;42.640;23.310;2022-11-20T04:36:01;93256.50;;;17.48;65.82
11682;BME280;5897;42.640;23.310;2022-11-20T04:38:28;93221.22;;;17.45;66.23
11682;BME280;5897;42.640;23.310;2022-11-20T04:40:57;93210.53;;;17.41;65.94
11682;BME280;5897;42.640;23.310;2022-11-20T04:43:25;93205.31;;;17.38;66.70
11682;BME280;5897;42.640;23.310;2022-11-20T04:45:53;93210.94;;;17.34;66.74
11682;BME280;5897;42.640;23.310;2022-11-20T04:48:20;93235.50;;;17.34;66.47
11682;BME280;5897;42.640;23.310;2022-11-20T04:50:47;93205.00;;;17.36;66.50
11682;BME280;5897;42.640;23.310;2022-11-20T04:53:13;93223.59;;;17.32;66.73
11682;BME280;5897;42.640;23.310;2022-11-20T04:55:41;93237.75;;;17.36;66.76
11682;BME280;5897;42.640;23.310;2022-11-20T04:58:07;93200.28;;;17.36;65.34
11682;BME280;5897;42.640;23.310;2022-11-20T05:00:36;93199.84;;;17.38;66.04
11682;BME280;5897;42.640;23.310;2022-11-20T05:03:03;93200.22;;;17.31;65.54
11682;BME280;5897;42.640;23.310;2022-11-20T05:05:29;93225.25;;;17.24;66.26
11682;BME280;5897;42.640;23.310;2022-11-20T05:07:56;93198.72;;;17.24;67.21
11682;BME280;5897;42.640;23.310;2022-11-20T05:10:23;93212.78;;;17.17;67.55
11682;BME280;5897;42.640;23.310;2022-11-20T05:12:50;93234.34;;;17.10;68.82
11682;BME280;5897;42.640;23.310;2022-11-20T05:15:17;93226.41;;;17.12;68.83
11682;BME280;5897;42.640;23.310;2022-11-20T05:17:48;93204.03;;;17.08;69.06
11682;BME280;5897;42.640;23.310;2022-11-20T05:20:15;93201.75;;;17.01;69.37
11682;BME280;5897;42.640;23.310;2022-11-20T05:22:42;93179.75;;;17.10;69.47
11682;BME280;5897;42.640;23.310;2022-11-20T05:25:09;93190.38;;;17.02;70.15
11682;BME280;5897;42.640;23.310;2022-11-20T05:27:35;93201.84;;;17.12;69.14
11682;BME280;5897;42.640;23.310;2022-11-20T05:30:03;93191.03;;;16.92;69.99
11682;BME280;5897;42.640;23.310;2022-11-20T05:32:30;93162.00;;;16.94;69.56
11682;BME280;5897;42.640;23.310;2022-11-20T05:34:58;93189.16;;;17.09;69.04
11682;BME280;5897;42.640;23.310;2022-11-20T05:37:24;93181.94;;;17.06;69.23
11682;BME280;5897;42.640;23.310;2022-11-20T05:39:51;93178.69;;;17.02;69.13
11682;BME280;5897;42.640;23.310;2022-11-20T05:42:18;93188.66;;;17.05;69.43
11682;BME280;5897;42.640;23.310;2022-11-20T05:44:56;93163.38;;;17.10;67.90
11682;BME280;5897;42.640;23.310;2022-11-20T05:47:23;93164.88;;;17.11;68.46
11682;BME280;5897;42.640;23.310;2022-11-20T05:49:50;93187.19;;;17.09;68.30
11682;BME280;5897;42.640;23.310;2022-11-20T05:52:18;93153.69;;;17.09;66.01
11682;BME280;5897;42.640;23.310;2022-11-20T05:54:45;93173.94;;;17.28;64.53
11682;BME280;5897;42.640;23.310;2022-11-20T05:57:12;93129.41;;;17.11;65.69
11682;BME280;5897;42.640;23.310;2022-11-20T05:59:39;93169.44;;;17.25;66.72
11682;BME280;5897;42.640;23.310;2022-11-20T06:02:05;93190.03;;;17.26;66.67
11682;BME280;5897;42.640;23.310;2022-11-20T06:04:32;93183.34;;;17.27;66.29
11682;BME280;5897;42.640;23.310;2022-11-20T06:06:59;93190.75;;;17.21;66.64
11682;BME280;5897;42.640;23.310;2022-11-20T06:09:27;93254.25;;;17.16;66.76
11682;BME280;5897;42.640;23.310;2022-11-20T06:11:53;93186.00;;;17.16;66.91
11682;BME280;5897;42.640;23.310;2022-11-20T06:14:20;93187.81;;;17.30;65.58
11682;BME280;5897;42.640;23.310;2022-11-20T06:16:47;93166.00;;;17.30;65.59
11682;BME280;5897;42.640;23.310;2022-11-20T06:19:14;93181.75;;;17.40;64.81
11682;BME280;5897;42.640;23.310;2022-11-20T06:21:41;93162.00;;;17.31;65.71
11682;BME280;5897;42.640;23.310;2022-11-20T06:24:09;93228.75;;;17.24;64.53
11682;BME280;5897;42.640;23.310;2022-11-20T06:26:37;93190.66;;;17.41;65.29
11682;BME280;5897;42.640;23.310;2022-11-20T06:29:04;93196.06;;;17.35;65.80
11682;BME280;5897;42.640;23.310;2022-11-20T06:31:30;93205.31;;;17.38;65.78
11682;BME280;5897;42.640;23.310;2022-11-20T06:34:00;93183.31;;;17.21;66.01
11682;BME280;5897;42.640;23.310;2022-11-20T06:36:27;93190.19;;;17.42;65.33
11682;BME280;5897;42.640;23.310;2022-11-20T06:38:53;93218.28;;;17.54;63.94
11682;BME280;5897;42.640;23.310;2022-11-20T06:41:21;93199.75;;;17.63;63.15
11682;BME280;5897;42.640;23.310;2022-11-20T06:43:50;93198.53;;;17.70;61.21
11682;BME280;5897;42.640;23.310;2022-11-20T06:46:18;93210.03;;;17.85;61.09
11682;BME280;5897;42.640;23.310;2022-11-20T06:48:45;93196.16;;;17.88;60.22
11682;BME280;5897;42.640;23.310;2022-11-20T06:51:12;93236.44;;;17.99;59.14
11682;BME280;5897;42.640;23.310;2022-11-20T06:53:39;93217.34;;;18.10;59.48
11682;BME280;5897;42.640;23.310;2022-11-20T06:56:06;93204.22;;;18.14;59.95
11682;BME280;5897;42.640;23.310;2022-11-20T06:58:34;93249.69;;;18.17;60.59
11682;BME280;5897;42.640;23.310;2022-11-20T07:01:05;93235.28;;;18.16;59.80
11682;BME280;5897;42.640;23.310;2022-11-20T07:03:32;93232.78;;;18.18;60.60
11682;BME280;5897;42.640;23.310;2022-11-20T07:06:00;93244.13;;;17.95;61.90
11682;BME280;5897;42.640;23.310;2022-11-20T07:08:27;93260.75;;;17.91;62.23
11682;BME280;5897;42.640;23.310;2022-11-20T07:10:57;93224.66;;;17.76;63.13
11682;BME280;5897;42.640;23.310;2022-11-20T07:13:25;93219.38;;;17.67;63.80
11682;BME280;5897;42.640;23.310;2022-11-20T07:15:52;93230.53;;;17.64;64.14
11682;BME280;5897;42.640;23.310;2022-11-20T07:18:20;93214.63;;;17.62;62.67
11682;BME280;5897;42.640;23.310;2022-11-20T07:20:47;93230.81;;;17.66;63.24
11682;BME280;5897;42.640;23.310;2022-11-20T07:23:13;93236.28;;;17.71;62.58
11682;BME280;5897;42.640;23.310;2022-11-20T07:25:40;93232.31;;;17.67;62.89
11682;BME280;5897;42.640;23.310;2022-11-20T07:28:07;93234.75;;;17.65;62.82
11682;BME280;5897;42.640;23.310;2022-11-20T07:30:36;93251.56;;;17.52;63.83
11682;BME280;5897;42.640;23.310;2022-11-20T07:33:03;93245.59;;;17.54;64.71
11682;BME280;5897;42.640;23.310;2022-11-20T07:35:31;93294.28;;;17.55;63.02
11682;BME280;5897;42.640;23.310;2022-11-20T07:37:58;93228.47;;;17.53;63.80
11682;BME280;5897;42.640;23.310;2022-11-20T07:40:24;93228.72;;;17.50;63.77
11682;BME280;5897;42.640;23.310;2022-11-20T07:42:52;93256.75;;;17.50;63.20
11682;BME280;5897;42.640;23.310;2022-11-20T07:45:21;93231.91;;;17.48;63.21
11682;BME280;5897;42.640;23.310;2022-11-20T07:47:48;93230.16;;;17.45;63.78
11682;BME280;5897;42.640;23.310;2022-11-20T07:50:16;93233.88;;;17.42;64.85
11682;BME280;5897;42.640;23.310;2022-11-20T07:52:44;93206.56;;;17.42;65.10
11682;BME280;5897;42.640;23.310;2022-11-20T07:55:11;93240.28;;;17.39;64.64
11682;BME280;5897;42.640;23.310;2022-11-20T07:57:38;93220.44;;;17.39;66.66
11682;BME280;5897;42.640;23.310;2022-11-20T08:00:07;93236.34;;;17.40;65.93
11682;BME280;5897;42.640;23.310;2022-11-20T08:02:36;93252.16;;;17.36;66.17
11682;BME280;5897;42.640;23.310;2022-11-20T08:05:04;93254.63;;;17.34;66.51
11682;BME280;5897;42.640;23.310;2022-11-20T08:07:35;93279.69;;;17.33;67.06
11682;BME280;5897;42.640;23.310;2022-11-20T08:10:04;93232.25;;;17.30;68.20
11682;BME280;5897;42.640;23.310;2022-11-20T08:12:31;93236.81;;;17.39;69.30
11682;BME280;5897;42.640;23.310;2022-11-20T08:15:15;93258.91;;;17.41;68.85
11682;BME280;5897;42.640;23.310;2022-11-20T08:17:42;93255.03;;;17.53;65.50
11682;BME280;5897;42.640;23.310;2022-11-20T08:20:09;93237.72;;;17.61;65.02
11682;BME280;5897;42.640;23.310;2022-11-20T08:22:36;93258.63;;;17.70;64.30
11682;BME280;5897;42.640;23.310;2022-11-20T08:25:05;93289.22;;;17.74;65.55
11682;BME280;5897;42.640;23.310;2022-11-20T08:27:32;93267.44;;;17.85;65.16
11682;BME280;5897;42.640;23.310;2022-11-20T08:29:59;93303.16;;;17.81;63.12
11682;BME280;5897;42.640;23.310;2022-11-20T08:32:26;93281.41;;;17.98;64.06
11682;BME280;5897;42.640;23.310;2022-11-20T08:34:52;93272.44;;;17.92;63.03
11682;BME280;5897;42.640;23.310;2022-11-20T08:37:19;93262.91;;;17.82;64.64
11682;BME280;5897;42.640;23.310;2022-11-20T08:39:46;93267.38;;;17.79;64.40
11682;BME280;5897;42.640;23.310;2022-11-20T08:42:14;93283.25;;;17.75;65.88
11682;BME280;5897;42.640;23.310;2022-11-20T08:44:40;93297.16;;;17.72;69.23
11682;BME280;5897;42.640;23.310;2022-11-20T08:47:08;93303.84;;;17.40;71.91
11682;BME280;5897;42.640;23.310;2022-11-20T08:49:35;93303.41;;;17.47;75.04
11682;BME280;5897;42.640;23.310;2022-11-20T08:52:01;93305.88;;;17.45;72.97
11682;BME280;5897;42.640;23.310;2022-11-20T08:54:28;93302.91;;;17.48;74.86
11682;BME280;5897;42.640;23.310;2022-11-20T08:56:55;93300.13;;;17.43;80.98
11682;BME280;5897;42.640;23.310;2022-11-20T08:59:23;93287.31;;;17.49;83.19
11682;BME280;5897;42.640;23.310;2022-11-20T09:01:50;93285.53;;;17.46;83.86
11682;BME280;5897;42.640;23.310;2022-11-20T09:04:16;93283.09;;;17.53;84.50
11682;BME280;5897;42.640;23.310;2022-11-20T09:06:43;93298.47;;;17.25;81.84
11682;BME280;5897;42.640;23.310;2022-11-20T09:09:10;93299.94;;;16.95;85.38
11682;BME280;5897;42.640;23.310;2022-11-20T09:11:36;93313.44;;;16.39;84.33
11682;BME280;5897;42.640;23.310;2022-11-20T09:14:04;93326.69;;;16.11;85.54
11682;BME280;5897;42.640;23.310;2022-11-20T09:16:32;93265.56;;;15.98;83.13
11682;BME280;5897;42.640;23.310;2022-11-20T09:18:58;93300.50;;;15.65;81.60
11682;BME280;5897;42.640;23.310;2022-11-20T09:21:25;93321.41;;;15.39;83.47
11682;BME280;5897;42.640;23.310;2022-11-20T09:23:52;93310.22;;;15.08;91.95
11682;BME280;5897;42.640;23.310;2022-11-20T09:26:19;93303.84;;;14.82;99.08
11682;BME280;5897;42.640;23.310;2022-11-20T09:28:45;93300.47;;;15.16;91.48
11682;BME280;5897;42.640;23.310;2022-11-20T09:31:19;93285.06;;;15.13;92.62
11682;BME280;5897;42.640;23.310;2022-11-20T09:33:47;93288.72;;;14.95;98.74
11682;BME280;5897;42.640;23.310;2022-11-20T09:36:14;93285.16;;;15.04;97.52
11682;BME280;5897;42.640;23.310;2022-11-20T09:38:42;93280.09;;;14.97;100.00
11682;BME280;5897;42.640;23.310;2022-11-20T09:41:34;93269.09;;;15.49;88.63
11682;BME280;5897;42.640;23.310;2022-11-20T09:44:11;93262.38;;;15.16;100.00
11682;BME280;5897;42.640;23.310;2022-11-20T09:46:49;93247.41;;;15.55;94.17
11682;BME280;5897;42.640;23.310;2022-11-20T09:49:26;93273.84;;;15.69;100.00
11682;BME280;5897;42.640;23.310;2022-11-20T09:51:58;93234.22;;;15.68;100.00
11682;BME280;5897;42.640;23.310;2022-11-20T09:54:29;93263.06;;;15.60;100.00
11682;BME280;5897;42.640;23.310;2022-11-20T09:57:00;93258.97;;;15.50;100.00
11682;BME280;5897;42.640;23.310;2022-11-20T09:59:34;93260.09;;;15.78;100.00
11682;BME280;5897;42.640;23.310;2022-11-20T10:02:12;93269.25;;;16.15;92.45
11682;BME280;5897;42.640;23.310;2022-11-20T10:04:47;93256.38;;;16.35;100.00
11682;BME280;5897;42.640;23.310;2022-11-20T10:07:22;93221.41;;;16.54;100.00
11682;BME280;5897;42.640;23.310;2022-11-20T10:09:51;93244.94;;;16.77;91.99
11682;BME280;5897;42.640;23.310;2022-11-20T10:12:26;93263.78;;;16.75;81.32
11682;BME280;5897;42.640;23.310;2022-11-20T10:15:05;93249.16;;;17.03;95.26
11682;BME280;5897;42.640;23.310;2022-11-20T10:17:53;93243.56;;;17.18;98.89
11682;BME280;5897;42.640;23.310;2022-11-20T10:20:29;93245.38;;;17.26;91.26
11682;BME280;5897;42.640;23.310;2022-11-20T10:26:01;93239.66;;;17.24;94.04
11682;BME280;5897;42.640;23.310;2022-11-20T10:28:39;93219.78;;;17.24;92.59
11682;BME280;5897;42.640;23.310;2022-11-20T10:31:23;93226.28;;;17.26;93.64
11682;BME280;5897;42.640;23.310;2022-11-20T10:33:54;93235.34;;;17.12;98.53
11682;BME280;5897;42.640;23.310;2022-11-20T10:36:27;93245.84;;;16.94;99.77
11682;BME280;5897;42.640;23.310;2022-11-20T10:38:59;93239.63;;;16.93;97.66
11682;BME280;5897;42.640;23.310;2022-11-20T10:41:30;93251.13;;;17.03;100.00
11682;BME280;5897;42.640;23.310;2022-11-20T10:44:02;93247.28;;;17.15;100.00
11682;BME280;5897;42.640;23.310;2022-11-20T10:46:36;93258.72;;;17.19;100.00
11682;BME280;5897;42.640;23.310;2022-11-20T10:49:09;93253.25;;;17.19;100.00
11682;BME280;5897;42.640;23.310;2022-11-20T10:51:46;93255.72;;;17.17;100.00
11682;BME280;5897;42.640;23.310;2022-11-20T10:54:21;93259.00;;;17.21;100.00
11682;BME280;5897;42.640;23.310;2022-11-20T10:56:51;93266.91;;;17.19;100.00
11682;BME280;5897;42.640;23.310;2022-11-20T10:59:38;93266.44;;;16.95;100.00
11682;BME280;5897;42.640;23.310;2022-11-20T11:02:16;93276.06;;;17.16;100.00
11682;BME280;5897;42.640;23.310;2022-11-20T11:04:44;93277.56;;;16.91;100.00
11682;BME280;5897;42.640;23.310;2022-11-20T11:07:16;93310.88;;;16.75;100.00
11682;BME280;5897;42.640;23.310;2022-11-20T11:09:47;93332.00;;;16.00;100.00
11682;BME280;5897;42.640;23.310;2022-11-20T11:12:14;93348.72;;;15.44;100.00
11682;BME280;5897;42.640;23.310;2022-11-20T11:14:45;93336.19;;;15.09;83.97
11682;BME280;5897;42.640;23.310;2022-11-20T11:17:24;93330.84;;;14.85;92.05
11682;BME280;5897;42.640;23.310;2022-11-20T11:20:04;93341.31;;;14.40;87.24
11682;BME280;5897;42.640;23.310;2022-11-20T11:22:35;93333.88;;;13.70;96.00
11682;BME280;5897;42.640;23.310;2022-11-20T11:25:19;93314.88;;;13.70;86.11
11682;BME280;5897;42.640;23.310;2022-11-20T11:27:47;93279.28;;;13.44;94.68
11682;BME280;5897;42.640;23.310;2022-11-20T11:30:16;93310.59;;;13.13;99.71
11682;BME280;5897;42.640;23.310;2022-11-20T11:32:44;93336.88;;;13.30;96.48
11682;BME280;5897;42.640;23.310;2022-11-20T11:35:26;93303.00;;;13.58;85.97
11682;BME280;5897;42.640;23.310;2022-11-20T11:38:03;93353.94;;;13.22;94.96
11682;BME280;5897;42.640;23.310;2022-11-20T11:40:32;93296.75;;;13.11;94.46
11682;BME280;5897;42.640;23.310;2022-11-20T11:43:01;93287.78;;;13.28;92.54
11682;BME280;5897;42.640;23.310;2022-11-20T11:45:29;93278.13;;;13.36;92.67
11682;BME280;5897;42.640;23.310;2022-11-20T11:47:56;93391.28;;;13.36;93.88
11682;BME280;5897;42.640;23.310;2022-11-20T11:50:25;93297.47;;;13.20;95.79
11682;BME280;5897;42.640;23.310;2022-11-20T11:52:59;93293.38;;;13.25;94.96
11682;BME280;5897;42.640;23.310;2022-11-20T11:55:35;93262.75;;;13.33;92.96
11682;BME280;5897;42.640;23.310;2022-11-20T11:58:34;93304.66;;;13.32;96.62
11682;BME280;5897;42.640;23.310;2022-11-20T12:01:04;93279.38;;;13.50;90.67
11682;BME280;5897;42.640;23.310;2022-11-20T12:03:35;93258.41;;;13.59;89.11
11682;BME280;5897;42.640;23.310;2022-11-20T12:06:06;93274.78;;;13.65;90.14
11682;BME280;5897;42.640;23.310;2022-11-20T12:08:43;93258.69;;;13.61;92.04
11682;BME280;5897;42.640;23.310;2022-11-20T12:11:15;93274.13;;;13.46;98.42
11682;BME280;5897;42.640;23.310;2022-11-20T12:13:48;93310.41;;;13.25;94.41
11682;BME280;5897;42.640;23.310;2022-11-20T12:16:19;93304.88;;;12.93;100.00
11682;BME280;5897;42.640;23.310;2022-11-20T12:18:48;93284.72;;;12.94;99.39
11682;BME280;5897;42.640;23.310;2022-11-20T12:21:20;93313.59;;;13.15;94.68
11682;BME280;5897;42.640;23.310;2022-11-20T12:24:06;93304.75;;;12.78;98.83
11682;BME280;5897;42.640;23.310;2022-11-20T12:26:50;93287.91;;;12.74;100.00
11682;BME280;5897;42.640;23.310;2022-11-20T12:29:29;93293.63;;;12.85;100.00
11682;BME280;5897;42.640;23.310;2022-11-20T12:32:27;93305.78;;;13.08;90.05
11682;BME280;5897;42.640;23.310;2022-11-20T12:35:04;93312.72;;;12.91;96.44
11682;BME280;5897;42.640;23.310;2022-11-20T12:37:40;93259.25;;;13.00;97.34
11682;BME280;5897;42.640;23.310;2022-11-20T12:40:26;93211.75;;;13.14;94.63
11682;BME280;5897;42.640;23.310;2022-11-20T12:43:01;93185.94;;;13.18;89.85
11682;BME280;5897;42.640;23.310;2022-11-20T12:46:07;93161.56;;;13.42;88.78
11682;BME280;5897;42.640;23.310;2022-11-20T12:51:58;93157.97;;;14.50;79.43
11682;BME280;5897;42.640;23.310;2022-11-20T12:54:55;93137.72;;;14.51;85.94
11682;BME280;5897;42.640;23.310;2022-11-20T12:57:29;93142.94;;;14.69;84.49
11682;BME280;5897;42.640;23.310;2022-11-20T13:00:11;93141.72;;;14.84;82.70
11682;BME280;5897;42.640;23.310;2022-11-20T13:03:12;93188.22;;;15.21;81.78
11682;BME280;5897;42.640;23.310;2022-11-20T13:05:52;93196.78;;;15.14;86.41
11682;BME280;5897;42.640;23.310;2022-11-20T13:08:23;93214.94;;;14.88;90.83
11682;BME280;5897;42.640;23.310;2022-11-20T13:10:56;93233.19;;;14.29;100.00
11682;BME280;5897;42.640;23.310;2022-11-20T13:13:33;93234.44;;;14.43;100.00
11682;BME280;5897;42.640;23.310;2022-11-20T13:16:06;93204.41;;;14.23;100.00
11682;BME280;5897;42.640;23.310;2022-11-20T13:18:38;93181.38;;;13.57;100.00
11682;BME280;5897;42.640;23.310;2022-11-20T13:21:15;93248.66;;;13.44;100.00